Time;durP1;ratioP1;P1;durP2;ratioP2;P2;SDS_P1;SDS_P2;PMS_P1;PMS_P2;Temp;Humidity;BMP_temperature;BMP_pressure;BME280_temperature;BME280_humidity;BME280_pressure;Samples;Min_cycle;Max_cycle;Signal;HPM_P1;HPM_P2
2019/02/14 00:00:08;;;;;;;31.3;19.7;;;;;;;6.63;71.28;1033040;;;;
2019/02/14 00:15:03;;;;;;;31.3;19.7;;;;;;;6.63;71.28;1033040;;;;
2019/02/14 00:30:04;;;;;;;31.3;19.7;;;;;;;6.63;71.28;1033040;;;;
2019/02/14 00:45:03;;;;;;;31.3;19.7;;;;;;;6.63;71.28;1033040;;;;
2019/02/14 01:00:14;;;;;;;31.3;19.7;;;;;;;6.63;71.28;1033040;;;;
2019/02/14 01:15:03;;;;;;;31.3;19.7;;;;;;;6.63;71.28;1033040;;;;
2019/02/14 01:30:05;;;;;;;31.3;19.7;;;;;;;6.63;71.28;1033040;;;;
2019/02/14 01:45:04;;;;;;;31.3;19.7;;;;;;;6.63;71.28;1033040;;;;
2019/02/14 02:00:15;;;;;;;31.3;19.7;;;;;;;6.63;71.28;1033040;;;;
2019/02/14 02:15:13;;;;;;;31.3;19.7;;;;;;;6.63;71.28;1033040;;;;
2019/02/14 02:30:05;;;;;;;31.3;19.7;;;;;;;6.63;71.28;1033040;;;;
2019/02/14 02:45:03;;;;;;;31.3;19.7;;;;;;;6.63;71.28;1033040;;;;
2019/02/14 03:00:27;;;;;;;31.3;19.7;;;;;;;6.63;71.28;1033040;;;;
2019/02/14 03:15:04;;;;;;;31.3;19.7;;;;;;;6.63;71.28;1033040;;;;
2019/02/14 03:30:11;;;;;;;31.3;19.7;;;;;;;6.63;71.28;1033040;;;;
2019/02/14 03:45:03;;;;;;;31.3;19.7;;;;;;;6.63;71.28;1033040;;;;
2019/02/14 04:00:20;;;;;;;31.3;19.7;;;;;;;6.63;71.28;1033040;;;;
2019/02/14 04:15:03;;;;;;;31.3;19.7;;;;;;;6.63;71.28;1033040;;;;
2019/02/14 04:30:08;;;;;;;31.3;19.7;;;;;;;6.63;71.28;1033040;;;;
2019/02/14 04:45:03;;;;;;;31.3;19.7;;;;;;;6.63;71.28;1033040;;;;
2019/02/14 05:00:15;;;;;;;31.3;19.7;;;;;;;6.63;71.28;1033040;;;;
2019/02/14 05:15:02;;;;;;;31.3;19.7;;;;;;;6.63;71.28;1033040;;;;
2019/02/14 05:30:15;;;;;;;31.3;19.7;;;;;;;6.63;71.28;1033040;;;;
2019/02/14 05:45:02;;;;;;;31.3;19.7;;;;;;;6.63;71.28;1033040;;;;
2019/02/14 06:00:04;;;;;;;32.3;19.7;;;;;;;3.7;74.58;1033120;;;;
2019/02/14 06:15:02;;;;;;;32.3;19.7;;;;;;;3.7;74.58;1033120;;;;
2019/02/14 06:30:03;;;;;;;41.4;21.6;;;;;;;3.32;74.69;1033430;;;;
2019/02/14 06:45:03;;;;;;;39;21.7;;;;;;;2.82;75.35;1033550;;;;
2019/02/14 07:00:14;;;;;;;42.7;23.2;;;;;;;2.93;75.54;1033850;;;;
2019/02/14 07:15:02;;;;;;;42;22.7;;;;;;;2.83;75.63;1033890;;;;
2019/02/14 07:30:06;;;;;;;45.1;24.5;;;;;;;3.67;75.08;1033930;;;;
2019/02/14 07:45:03;;;;;;;45.1;24.5;;;;;;;3.67;75.08;1033930;;;;
2019/02/14 08:00:06;;;;;;;32.5;17.8;;;;;;;5.26;71.04;1034170;;;;
2019/02/14 08:15:02;;;;;;;27.7;16.7;;;;;;;6.16;68.95;1034050;;;;
2019/02/14 08:30:04;;;;;;;27;16.3;;;;;;;7.17;67.02;1033970;;;;
2019/02/14 08:45:03;;;;;;;22.8;15.3;;;;;;;8.3;64.53;1033650;;;;
2019/02/14 09:00:07;;;;;;;23.5;15.6;;;;;;;7.74;65.79;1033810;;;;
2019/02/14 09:15:04;;;;;;;23.5;15.6;;;;;;;7.74;65.79;1033810;;;;
2019/02/14 09:30:13;;;;;;;21.7;11.9;;;;;;;9.55;59.17;1033760;;;;
2019/02/14 09:45:03;;;;;;;18.8;11.2;;;;;;;11.05;55.32;1033530;;;;
2019/02/14 10:00:19;;;;;;;17.7;11.8;;;;;;;11.49;54.8;1033490;;;;
2019/02/14 10:15:03;;;;;;;18.8;12;;;;;;;10.73;56.3;1033430;;;;
2019/02/14 10:30:05;;;;;;;21.5;12;;;;;;;10.36;55.83;1033430;;;;
2019/02/14 10:45:03;;;;;;;21.5;12;;;;;;;10.36;55.83;1033430;;;;
2019/02/14 11:00:13;;;;;;;21.5;12;;;;;;;10.36;55.83;1033430;;;;
2019/02/14 11:15:03;;;;;;;13.8;8.9;;;;;;;10.79;55.09;1033530;;;;
2019/02/14 11:30:20;;;;;;;15.1;8.8;;;;;;;10.92;54.17;1033450;;;;
2019/02/14 11:45:03;;;;;;;16.3;10.2;;;;;;;10.97;53.74;1033290;;;;
2019/02/14 12:00:09;;;;;;;13.9;8.3;;;;;;;11.51;52.64;1033100;;;;
2019/02/14 12:15:04;;;;;;;13.5;7.5;;;;;;;11.8;51.42;1032880;;;;
2019/02/14 12:30:20;;;;;;;13.4;7.2;;;;;;;12.22;46.31;1032670;;;;
2019/02/14 12:45:06;;;;;;;10.8;5.9;;;;;;;12.69;47.5;1032280;;;;
2019/02/14 13:00:18;;;;;;;9.1;5.3;;;;;;;12.64;46.27;1032140;;;;
2019/02/14 13:15:04;;;;;;;9.9;6.2;;;;;;;12.66;46.94;1031980;;;;
2019/02/14 13:30:06;;;;;;;10.8;6.2;;;;;;;12.48;45.17;1031980;;;;
2019/02/14 13:45:06;;;;;;;11.7;5.4;;;;;;;13.08;46.32;1031880;;;;
2019/02/14 14:00:28;;;;;;;11.9;5.9;;;;;;;13.06;46.96;1031830;;;;
2019/02/14 14:15:03;;;;;;;11.9;5.9;;;;;;;13.06;46.96;1031830;;;;
2019/02/14 14:30:09;;;;;;;10;5.3;;;;;;;12.94;47.24;1031450;;;;
2019/02/14 14:45:04;;;;;;;10;4.9;;;;;;;12.59;48.63;1031360;;;;
2019/02/14 15:00:10;;;;;;;8.5;4.5;;;;;;;13.21;45.95;1031160;;;;
2019/02/14 15:15:03;;;;;;;6.3;3.5;;;;;;;13.61;43.36;1031010;;;;
2019/02/14 15:30:26;;;;;;;5.9;2.9;;;;;;;13.04;44.02;1030900;;;;
2019/02/14 15:45:08;;;;;;;5.6;2.8;;;;;;;12.83;44.9;1030700;;;;
2019/02/14 16:00:22;;;;;;;5.6;2.8;;;;;;;12.83;44.9;1030700;;;;
2019/02/14 16:15:05;;;;;;;5.6;2.8;;;;;;;12.83;44.9;1030700;;;;
2019/02/14 16:30:15;;;;;;;5.4;2.9;;;;;;;12.09;46.97;1030700;;;;
2019/02/14 16:45:04;;;;;;;6.9;3.2;;;;;;;11.36;52.17;1030760;;;;
2019/02/14 17:00:38;;;;;;;6.9;3.2;;;;;;;11.2;48.63;1030740;;;;
2019/02/14 17:15:04;;;;;;;13.2;6.2;;;;;;;11.13;44.04;1030780;;;;
2019/02/14 17:30:17;;;;;;;13.2;6.2;;;;;;;11.13;44.04;1030780;;;;
2019/02/14 17:45:05;;;;;;;6.8;3.8;;;;;;;10.51;47.29;1030920;;;;
2019/02/14 18:00:04;;;;;;;8.2;3.8;;;;;;;10.32;47.87;1030990;;;;
2019/02/14 18:15:03;;;;;;;6.6;4.3;;;;;;;9.96;50.42;1031070;;;;
2019/02/14 18:30:07;;;;;;;8;4.8;;;;;;;9.28;49.66;1031160;;;;
2019/02/14 18:45:08;;;;;;;6.2;4.3;;;;;;;8.98;52.82;1031160;;;;
2019/02/14 19:00:25;;;;;;;8;5.3;;;;;;;8.65;53.9;1031160;;;;
2019/02/14 19:15:05;;;;;;;13.7;8.6;;;;;;;8.44;54.83;1031160;;;;
2019/02/14 19:30:10;;;;;;;12.2;7.6;;;;;;;7.94;57.79;1031070;;;;
2019/02/14 19:45:03;;;;;;;9.2;5.6;;;;;;;8.01;58.64;1031070;;;;
2019/02/14 20:00:41;;;;;;;8.1;5.4;;;;;;;7.41;59.03;1031180;;;;
2019/02/14 20:15:04;;;;;;;7.8;4.8;;;;;;;7.56;56.95;1031070;;;;
2019/02/14 20:30:23;;;;;;;7.4;4.4;;;;;;;7.43;57.14;1030950;;;;
2019/02/14 20:45:03;;;;;;;7.4;4.4;;;;;;;7.43;57.14;1030950;;;;
2019/02/14 21:00:26;;;;;;;7.4;4.4;;;;;;;7.43;57.14;1030950;;;;
2019/02/14 21:15:05;;;;;;;7.4;4.4;;;;;;;7.43;57.14;1030950;;;;
2019/02/14 21:30:15;;;;;;;7.4;4.4;;;;;;;7.43;57.14;1030950;;;;
2019/02/14 21:45:04;;;;;;;7.4;4.4;;;;;;;7.43;57.14;1030950;;;;
2019/02/14 22:00:21;;;;;;;7.4;4.4;;;;;;;7.43;57.14;1030950;;;;
2019/02/14 22:15:04;;;;;;;7.4;4.4;;;;;;;7.43;57.14;1030950;;;;
2019/02/14 22:30:10;;;;;;;7.4;4.4;;;;;;;7.43;57.14;1030950;;;;
2019/02/14 22:45:06;;;;;;;7.4;4.4;;;;;;;7.43;57.14;1030950;;;;
2019/02/14 23:00:25;;;;;;;7.4;4.4;;;;;;;7.43;57.14;1030950;;;;
2019/02/14 23:15:05;;;;;;;7.4;4.4;;;;;;;7.43;57.14;1030950;;;;
2019/02/14 23:30:07;;;;;;;7.4;4.4;;;;;;;7.43;57.14;1030950;;;;
2019/02/14 23:45:04;;;;;;;7.4;4.4;;;;;;;7.43;57.14;1030950;;;;
